Time;durP1;ratioP1;P1;durP2;ratioP2;P2;SDS_P1;SDS_P2;PMS_P1;PMS_P2;Temp;Humidity;BMP_temperature;BMP_pressure;BME280_temperature;BME280_humidity;BME280_pressure;Samples;Min_cycle;Max_cycle;Signal;HPM_P1;HPM_P2
2022/11/10 00:01:04;;;;;;;9.77;2.47;;;13.00;99.90;;;;;;5034782;28;20210;-87
2022/11/10 00:03:31;;;;;;;10.13;2.50;;;13.00;99.90;;;;;;5034914;28;20281;-84
2022/11/10 00:06:01;;;;;;;10.87;2.80;;;13.00;99.90;;;;;;5035876;28;20202;-86
2022/11/10 00:08:28;;;;;;;12.50;2.90;;;13.00;99.90;;;;;;5034883;28;20210;-86
2022/11/10 00:10:57;;;;;;;11.13;3.00;;;13.00;99.90;;;;;;5034805;28;20199;-89
2022/11/10 00:13:26;;;;;;;11.40;3.00;;;12.90;99.90;;;;;;5034328;28;20242;-87
2022/11/10 00:18:37;;;;;;;15.27;2.70;;;13.00;99.90;;;;;;5034160;28;20574;-87
2022/11/10 00:21:08;;;;;;;14.13;3.07;;;12.90;99.90;;;;;;5036840;28;20199;-87
2022/11/10 00:23:35;;;;;;;11.83;3.00;;;12.90;99.90;;;;;;5054798;28;20281;-86
2022/11/10 00:26:02;;;;;;;12.57;3.20;;;12.90;99.90;;;;;;5049051;28;20202;-86
2022/11/10 00:28:31;;;;;;;18.53;4.30;;;12.90;99.90;;;;;;5032493;28;20358;-87
2022/11/10 00:30:58;;;;;;;13.10;3.70;;;12.90;99.90;;;;;;5034185;28;20283;-88
2022/11/10 00:33:25;;;;;;;13.37;3.47;;;12.90;99.90;;;;;;5034789;28;20248;-88
2022/11/10 00:35:52;;;;;;;16.13;3.30;;;12.90;99.90;;;;;;5033958;28;20298;-88
2022/11/10 00:38:20;;;;;;;14.37;3.20;;;12.90;99.90;;;;;;5033907;28;20447;-87
2022/11/10 00:40:48;;;;;;;16.53;4.20;;;12.90;99.90;;;;;;5035804;28;20210;-87
2022/11/10 00:43:15;;;;;;;14.20;3.50;;;12.90;99.90;;;;;;5054235;28;20206;-87
2022/11/10 00:45:43;;;;;;;11.80;3.70;;;12.90;99.90;;;;;;5054481;28;20362;-87
2022/11/10 00:48:10;;;;;;;19.57;3.57;;;12.90;99.90;;;;;;5048721;28;20238;-88
2022/11/10 00:50:37;;;;;;;14.17;4.20;;;12.90;99.90;;;;;;5034522;28;20496;-88
2022/11/10 00:53:04;;;;;;;19.80;4.13;;;12.80;99.90;;;;;;5034769;28;20213;-86
2022/11/10 00:55:32;;;;;;;12.93;4.63;;;12.70;99.90;;;;;;5034261;28;20206;-89
2022/11/10 00:57:59;;;;;;;17.07;5.00;;;12.70;99.90;;;;;;5045071;28;20212;-87
2022/11/10 01:00:26;;;;;;;18.23;4.97;;;12.80;99.90;;;;;;5053873;28;20202;-85
2022/11/10 01:02:53;;;;;;;14.30;3.23;;;12.80;99.90;;;;;;5042217;28;20289;-87
2022/11/10 01:05:19;;;;;;;12.37;3.30;;;12.80;99.90;;;;;;5034132;28;20492;-85
2022/11/10 01:07:46;;;;;;;10.13;3.10;;;12.80;99.90;;;;;;5033623;28;20637;-88
2022/11/10 01:10:13;;;;;;;15.17;4.00;;;12.80;99.90;;;;;;5034064;28;20199;-86
2022/11/10 01:12:41;;;;;;;17.47;5.10;;;12.80;99.90;;;;;;5033177;28;20237;-87
2022/11/10 01:15:09;;;;;;;17.77;4.87;;;12.80;99.90;;;;;;5033882;28;20210;-85
2022/11/10 01:17:36;;;;;;;17.47;4.33;;;12.80;99.90;;;;;;5033958;28;20203;-86
2022/11/10 01:20:03;;;;;;;17.37;4.80;;;12.80;99.90;;;;;;5040383;28;20202;-87
2022/11/10 01:22:30;;;;;;;18.40;4.40;;;12.70;99.90;;;;;;5053901;28;20205;-87
2022/11/10 01:24:57;;;;;;;12.30;3.53;;;12.70;99.90;;;;;;5035226;28;20291;-88
2022/11/10 01:27:24;;;;;;;14.47;3.43;;;12.70;99.90;;;;;;5033810;28;20241;-85
2022/11/10 01:29:52;;;;;;;16.97;4.60;;;12.70;99.90;;;;;;5033909;28;20206;-87
2022/11/10 01:32:19;;;;;;;16.33;4.17;;;12.70;99.90;;;;;;5033772;28;20603;-89
2022/11/10 01:34:46;;;;;;;16.50;3.73;;;12.60;99.90;;;;;;5034092;28;20210;-88
2022/11/10 01:37:13;;;;;;;12.60;3.83;;;12.70;99.90;;;;;;5053889;28;20313;-88
2022/11/10 01:39:39;;;;;;;16.63;4.57;;;12.70;99.90;;;;;;5043020;28;20265;-87
2022/11/10 01:42:06;;;;;;;21.80;4.33;;;12.70;99.90;;;;;;5033780;28;20747;-87
2022/11/10 01:44:35;;;;;;;14.47;3.17;;;12.80;99.90;;;;;;5033724;28;20501;-86
2022/11/10 01:47:03;;;;;;;11.87;3.70;;;12.80;99.90;;;;;;5033963;28;20313;-88
2022/11/10 01:49:32;;;;;;;14.83;3.93;;;12.80;99.90;;;;;;5036393;28;20281;-88
2022/11/10 01:52:03;;;;;;;14.50;3.90;;;12.80;99.90;;;;;;5037334;28;20234;-87
2022/11/10 01:54:34;;;;;;;16.23;4.73;;;12.80;99.90;;;;;;5037019;28;20199;-87
2022/11/10 01:57:04;;;;;;;24.03;5.43;;;12.70;99.90;;;;;;5037173;28;20194;-86
2022/11/10 01:59:39;;;;;;;10.83;4.27;;;12.70;99.90;;;;;;5048114;28;20676;-87
2022/11/10 02:02:13;;;;;;;16.13;4.40;;;12.70;99.90;;;;;;5035461;28;20202;-88
2022/11/10 02:04:42;;;;;;;18.50;4.97;;;12.70;99.90;;;;;;5037012;28;20285;-86
2022/11/10 02:07:10;;;;;;;13.07;4.47;;;12.70;99.90;;;;;;5037043;28;20238;-87
2022/11/10 02:09:37;;;;;;;17.83;4.70;;;12.70;99.90;;;;;;5046530;28;20566;-87
2022/11/10 02:12:05;;;;;;;16.70;4.30;;;12.70;99.90;;;;;;5056106;28;20201;-86
2022/11/10 02:14:32;;;;;;;14.77;4.60;;;12.70;99.90;;;;;;5054712;28;20196;-87
2022/11/10 02:16:59;;;;;;;12.77;4.83;;;12.70;99.90;;;;;;5036575;28;20578;-85
2022/11/10 02:19:28;;;;;;;16.53;4.97;;;12.70;99.90;;;;;;5036363;28;20205;-88
2022/11/10 02:21:56;;;;;;;14.60;4.60;;;12.70;99.90;;;;;;5036869;28;20201;-86
2022/11/10 02:24:23;;;;;;;16.90;4.60;;;12.70;99.90;;;;;;5036447;28;20203;-87
2022/11/10 02:26:53;;;;;;;18.10;4.63;;;12.80;99.90;;;;;;5036322;28;20603;-87
2022/11/10 02:29:20;;;;;;;14.93;3.77;;;12.80;99.90;;;;;;5036570;28;20194;-87
2022/11/10 02:31:47;;;;;;;12.80;3.40;;;12.70;99.90;;;;;;5036504;28;20210;-86
2022/11/10 02:34:14;;;;;;;15.60;4.40;;;12.70;99.90;;;;;;5036386;28;20202;-86
2022/11/10 02:36:41;;;;;;;17.67;4.30;;;12.70;99.90;;;;;;5036386;28;20206;-87
2022/11/10 02:39:09;;;;;;;20.60;5.10;;;12.70;99.90;;;;;;5036291;28;20206;-84
2022/11/10 02:41:36;;;;;;;14.67;4.83;;;12.70;99.90;;;;;;5036076;28;20203;-84
2022/11/10 02:44:04;;;;;;;22.90;5.97;;;12.80;99.90;;;;;;5036131;28;20285;-87
2022/11/10 02:46:31;;;;;;;17.00;4.80;;;12.80;99.90;;;;;;5036535;28;20293;-86
2022/11/10 02:48:58;;;;;;;15.87;5.60;;;12.80;99.90;;;;;;5035788;28;20603;-86
2022/11/10 02:51:24;;;;;;;17.10;5.13;;;12.70;99.90;;;;;;5036457;28;20218;-86
2022/11/10 02:53:51;;;;;;;26.90;6.40;;;12.70;99.90;;;;;;5036238;28;20202;-85
2022/11/10 02:56:19;;;;;;;21.13;5.37;;;12.80;99.90;;;;;;5036041;28;20286;-86
2022/11/10 02:58:46;;;;;;;20.67;4.37;;;12.70;99.90;;;;;;5035688;28;20205;-84
2022/11/10 03:01:13;;;;;;;19.00;5.47;;;12.80;99.90;;;;;;5035622;28;20202;-87
2022/11/10 03:03:40;;;;;;;20.97;4.37;;;12.80;99.90;;;;;;5036365;28;20289;-86
2022/11/10 03:06:07;;;;;;;19.23;4.63;;;12.80;99.90;;;;;;5036050;28;20209;-84
2022/11/10 03:08:34;;;;;;;19.87;4.10;;;12.80;99.90;;;;;;5052304;28;20218;-87
2022/11/10 03:11:01;;;;;;;19.37;5.33;;;12.80;99.90;;;;;;5055814;28;20198;-89
2022/11/10 03:13:29;;;;;;;18.33;4.20;;;12.80;99.90;;;;;;5055419;28;20238;-84
2022/11/10 03:15:57;;;;;;;19.77;3.67;;;12.80;99.90;;;;;;5055873;28;20205;-87
2022/11/10 03:18:23;;;;;;;17.70;3.70;;;12.80;99.90;;;;;;5052318;28;20594;-86
2022/11/10 03:20:51;;;;;;;15.87;3.90;;;12.80;99.90;;;;;;5055343;28;20288;-87
2022/11/10 03:23:18;;;;;;;19.83;3.87;;;12.80;99.90;;;;;;5053387;28;20270;-88
2022/11/10 03:25:46;;;;;;;19.60;3.70;;;12.80;99.90;;;;;;5035607;28;20220;-87
2022/11/10 03:28:13;;;;;;;18.90;4.07;;;12.90;99.90;;;;;;5040998;28;20209;-85
2022/11/10 03:30:42;;;;;;;13.43;3.63;;;12.90;99.90;;;;;;5055187;28;20594;-87
2022/11/10 03:33:09;;;;;;;15.57;3.60;;;12.90;99.90;;;;;;5054575;28;20205;-86
2022/11/10 03:35:36;;;;;;;20.97;4.47;;;12.80;99.90;;;;;;5052801;28;20202;-86
2022/11/10 03:38:03;;;;;;;18.00;4.63;;;12.80;99.90;;;;;;5055602;28;20190;-86
2022/11/10 03:40:30;;;;;;;21.83;5.23;;;12.80;99.90;;;;;;5055447;28;20198;-86
2022/11/10 03:42:57;;;;;;;19.13;4.93;;;12.90;99.90;;;;;;5045216;28;20297;-85
2022/11/10 03:45:24;;;;;;;24.40;5.63;;;12.90;99.90;;;;;;5034866;28;20498;-84
2022/11/10 03:47:53;;;;;;;17.63;5.20;;;12.80;99.90;;;;;;5034587;28;20222;-85
2022/11/10 03:50:20;;;;;;;19.87;5.50;;;12.80;99.90;;;;;;5052060;28;20229;-86
2022/11/10 03:52:47;;;;;;;16.03;5.43;;;12.80;99.90;;;;;;5054607;28;20206;-84
2022/11/10 03:55:16;;;;;;;19.03;5.53;;;12.90;99.90;;;;;;5054890;28;20220;-84
2022/11/10 03:57:43;;;;;;;23.00;5.07;;;12.90;99.90;;;;;;5040063;28;20207;-84
2022/11/10 04:00:13;;;;;;;20.30;4.87;;;12.90;99.90;;;;;;5035698;28;20209;-85
2022/11/10 04:02:40;;;;;;;20.57;3.73;;;12.90;99.90;;;;;;5034197;28;20545;-84
2022/11/10 04:10:42;;;;;;;20.93;3.63;;;12.90;99.90;;;;;;5034137;28;20411;-86
2022/11/10 04:15:53;;;;;;;15.17;4.13;;;12.90;99.90;;;;;;5034323;28;20233;-87
2022/11/10 04:18:28;;;;;;;13.17;3.47;;;12.90;99.90;;;;;;5034250;28;20605;-86
2022/11/10 04:20:58;;;;;;;19.00;3.97;;;12.90;99.90;;;;;;5034767;28;20309;-86
2022/11/10 04:23:29;;;;;;;21.17;4.33;;;12.90;99.90;;;;;;5034879;28;20618;-86
2022/11/10 04:28:44;;;;;;;19.57;4.77;;;12.90;99.90;;;;;;5034264;28;20236;-85
2022/11/10 04:31:12;;;;;;;17.27;4.23;;;12.90;99.90;;;;;;5033971;28;20206;-87
2022/11/10 04:33:40;;;;;;;19.80;4.63;;;12.90;99.90;;;;;;5034703;28;20194;-87
2022/11/10 04:36:10;;;;;;;19.50;4.17;;;12.90;99.90;;;;;;5035758;28;20202;-85
2022/11/10 04:38:37;;;;;;;16.17;3.80;;;12.80;99.90;;;;;;5034589;28;20199;-86
2022/11/10 04:41:04;;;;;;;21.57;4.80;;;12.90;99.90;;;;;;5034267;28;20198;-86
2022/11/10 04:43:31;;;;;;;16.83;4.00;;;12.90;99.90;;;;;;5034413;28;20202;-84
2022/11/10 04:45:58;;;;;;;18.80;4.67;;;12.90;99.90;;;;;;5034152;28;20220;-86
2022/11/10 04:48:27;;;;;;;20.17;4.37;;;12.90;99.90;;;;;;5033638;28;20236;-84
2022/11/10 04:50:54;;;;;;;21.10;3.17;;;12.90;99.90;;;;;;5034178;28;20317;-85
2022/11/10 04:53:24;;;;;;;20.47;5.20;;;12.90;99.90;;;;;;5045375;28;20205;-86
2022/11/10 04:55:52;;;;;;;21.17;4.53;;;12.90;99.90;;;;;;5052045;28;20554;-86
2022/11/10 04:58:18;;;;;;;24.13;4.43;;;12.90;99.90;;;;;;5053855;28;20598;-85
2022/11/10 05:00:45;;;;;;;14.17;2.83;;;12.90;99.90;;;;;;5053431;28;20229;-87
2022/11/10 05:03:13;;;;;;;19.20;3.97;;;12.90;99.90;;;;;;5054306;28;20289;-85
2022/11/10 05:05:40;;;;;;;22.60;4.13;;;12.90;99.90;;;;;;5048133;28;20199;-86
2022/11/10 05:08:08;;;;;;;16.40;3.80;;;12.90;99.90;;;;;;5032263;28;20281;-85
2022/11/10 05:10:37;;;;;;;22.37;4.13;;;12.90;99.90;;;;;;5033924;28;20199;-86
2022/11/10 05:13:05;;;;;;;19.17;3.90;;;12.90;99.90;;;;;;5033664;28;20706;-86
2022/11/10 05:15:32;;;;;;;20.43;4.37;;;12.90;99.90;;;;;;5033685;28;20209;-85
2022/11/10 05:17:59;;;;;;;24.37;3.30;;;12.80;99.90;;;;;;5033880;28;20497;-85
2022/11/10 05:20:27;;;;;;;15.50;3.30;;;12.80;99.90;;;;;;5033638;28;20202;-87
2022/11/10 05:25:42;;;;;;;20.57;4.37;;;12.90;99.90;;;;;;5037802;28;20222;-86
2022/11/10 05:28:11;;;;;;;21.60;4.23;;;12.90;99.90;;;;;;5037524;28;20305;-87
2022/11/10 05:30:38;;;;;;;16.07;3.40;;;12.90;99.90;;;;;;5049045;28;20301;-85
2022/11/10 05:33:05;;;;;;;17.53;3.50;;;12.90;99.90;;;;;;5039718;28;20508;-87
2022/11/10 05:35:32;;;;;;;20.93;3.77;;;12.90;99.90;;;;;;5037348;28;20195;-84
2022/11/10 05:37:59;;;;;;;16.73;3.47;;;12.90;99.90;;;;;;5037713;28;20202;-86
2022/11/10 05:40:26;;;;;;;16.37;3.43;;;12.90;99.90;;;;;;5037601;28;20285;-86
2022/11/10 05:42:55;;;;;;;17.97;3.70;;;12.90;99.90;;;;;;5038002;28;20286;-85
2022/11/10 05:45:23;;;;;;;19.23;3.17;;;13.00;99.90;;;;;;5037519;28;20205;-86
2022/11/10 05:47:50;;;;;;;15.77;3.17;;;13.00;99.90;;;;;;5036994;28;20195;-86
2022/11/10 05:50:18;;;;;;;17.27;3.00;;;13.00;99.90;;;;;;5037002;28;20213;-85
2022/11/10 05:52:48;;;;;;;18.47;3.97;;;13.10;99.90;;;;;;5036539;28;20217;-84
2022/11/10 05:55:16;;;;;;;27.37;4.13;;;13.10;99.90;;;;;;5036576;28;20202;-87
2022/11/10 05:57:43;;;;;;;16.93;3.70;;;13.10;99.90;;;;;;5037113;28;20202;-85
2022/11/10 06:00:13;;;;;;;17.00;3.33;;;13.10;99.90;;;;;;5036919;28;20210;-87
2022/11/10 06:02:40;;;;;;;17.50;4.17;;;13.10;99.90;;;;;;5036806;28;20607;-87
2022/11/10 06:05:08;;;;;;;15.37;3.10;;;13.10;99.90;;;;;;5036908;28;20206;-87
2022/11/10 06:07:34;;;;;;;15.67;3.77;;;13.10;99.90;;;;;;5036868;28;20198;-85
2022/11/10 06:10:01;;;;;;;18.50;3.77;;;13.20;99.90;;;;;;5036413;28;20238;-86
2022/11/10 06:12:29;;;;;;;18.47;3.57;;;13.20;99.90;;;;;;5036735;28;20317;-83
2022/11/10 06:14:57;;;;;;;22.43;3.53;;;13.20;99.90;;;;;;5050427;28;20202;-87
2022/11/10 06:17:26;;;;;;;20.17;4.57;;;13.20;99.90;;;;;;5056676;28;20202;-84
2022/11/10 06:19:53;;;;;;;20.80;3.97;;;13.20;99.90;;;;;;5039646;28;20548;-85
2022/11/10 06:22:20;;;;;;;22.00;4.00;;;13.20;99.90;;;;;;5041041;28;20204;-85
2022/11/10 06:24:47;;;;;;;14.13;3.30;;;13.20;99.90;;;;;;5056674;28;20205;-88
2022/11/10 06:27:13;;;;;;;16.07;3.80;;;13.20;99.90;;;;;;5056719;28;20206;-86
2022/11/10 06:29:40;;;;;;;17.37;3.33;;;13.20;99.90;;;;;;5054030;28;20218;-87
2022/11/10 06:32:07;;;;;;;15.70;3.27;;;13.20;99.90;;;;;;5055979;28;20224;-83
2022/11/10 06:34:35;;;;;;;16.63;3.70;;;13.20;99.90;;;;;;5049858;28;20301;-85
2022/11/10 06:37:02;;;;;;;17.60;3.10;;;13.20;99.90;;;;;;5036409;28;20690;-85
2022/11/10 06:39:29;;;;;;;18.83;4.00;;;13.10;99.90;;;;;;5033999;28;20510;-86
2022/11/10 06:41:56;;;;;;;17.33;3.17;;;13.10;99.90;;;;;;5035818;28;20294;-82
2022/11/10 06:44:23;;;;;;;14.30;3.57;;;13.20;99.90;;;;;;5036028;28;20205;-86
2022/11/10 06:46:50;;;;;;;15.83;3.97;;;13.20;99.90;;;;;;5049612;28;20198;-84
2022/11/10 06:49:17;;;;;;;19.13;4.53;;;13.20;99.90;;;;;;5055209;28;20230;-84
2022/11/10 06:51:45;;;;;;;17.03;3.80;;;13.20;99.90;;;;;;5055856;28;20272;-86
2022/11/10 06:54:11;;;;;;;20.50;3.80;;;13.20;99.90;;;;;;5056067;28;20216;-85
2022/11/10 06:56:38;;;;;;;19.70;4.20;;;13.20;99.90;;;;;;5055842;28;20198;-84
2022/11/10 06:59:05;;;;;;;19.80;3.53;;;13.30;99.90;;;;;;5040409;28;20213;-86
2022/11/10 07:01:32;;;;;;;22.07;3.40;;;13.30;99.90;;;;;;5035842;28;20616;-90
2022/11/10 07:03:59;;;;;;;17.90;3.27;;;13.30;99.90;;;;;;5036204;28;20202;-84
2022/11/10 07:06:26;;;;;;;15.93;3.80;;;13.30;99.90;;;;;;5049360;28;20553;-86
2022/11/10 07:08:54;;;;;;;15.43;3.40;;;13.30;99.90;;;;;;5055490;28;20218;-85
2022/11/10 07:11:21;;;;;;;14.77;3.10;;;13.30;99.90;;;;;;5055336;28;20198;-85
2022/11/10 07:13:50;;;;;;;16.70;3.13;;;13.30;99.90;;;;;;5064229;23;20841;-85
2022/11/10 07:16:16;;;;;;;18.30;3.50;;;13.40;99.90;;;;;;5063511;28;20206;-85
2022/11/10 07:18:43;;;;;;;19.60;3.00;;;13.30;99.90;;;;;;5055282;28;20204;-85
2022/11/10 07:21:10;;;;;;;21.77;4.23;;;13.30;99.90;;;;;;5070584;28;20207;-85
2022/11/10 07:23:37;;;;;;;17.53;3.77;;;13.30;99.90;;;;;;5075221;28;20510;-88
2022/11/10 07:26:06;;;;;;;17.73;3.37;;;13.30;99.90;;;;;;5071010;28;20512;-86
2022/11/10 07:28:33;;;;;;;17.20;3.50;;;13.30;99.90;;;;;;5054629;28;20264;-88
2022/11/10 07:31:02;;;;;;;17.37;4.27;;;13.40;99.90;;;;;;5054970;28;20201;-86
2022/11/10 07:33:29;;;;;;;20.50;3.57;;;13.40;99.90;;;;;;5055237;28;20202;-87
2022/11/10 07:35:57;;;;;;;19.90;3.83;;;13.40;99.90;;;;;;5055948;28;21282;-81
2022/11/10 07:38:25;;;;;;;20.13;3.70;;;13.50;99.90;;;;;;5055101;28;20308;-86
2022/11/10 07:40:53;;;;;;;18.83;3.40;;;13.50;99.90;;;;;;5058434;28;20205;-87
2022/11/10 07:43:22;;;;;;;16.20;3.23;;;13.60;99.90;;;;;;5074647;28;20219;-87
2022/11/10 07:45:49;;;;;;;19.93;3.87;;;13.70;99.90;;;;;;5069123;28;20490;-83
2022/11/10 07:48:17;;;;;;;19.07;3.47;;;13.70;99.90;;;;;;5054387;28;20501;-83
2022/11/10 07:50:44;;;;;;;17.43;3.50;;;13.70;99.90;;;;;;5054705;28;20224;-87
2022/11/10 07:53:12;;;;;;;19.47;3.63;;;13.80;99.90;;;;;;5055010;28;20202;-86
2022/11/10 07:55:41;;;;;;;13.87;3.07;;;13.80;99.90;;;;;;5054592;28;20198;-85
2022/11/10 07:58:09;;;;;;;16.37;3.90;;;13.80;99.90;;;;;;5065669;28;20201;-86
2022/11/10 08:00:38;;;;;;;19.57;4.10;;;13.80;99.90;;;;;;5074736;28;20197;-88
2022/11/10 08:03:06;;;;;;;15.07;3.17;;;13.90;99.90;;;;;;5074518;28;20288;-87
2022/11/10 08:05:33;;;;;;;17.73;2.50;;;13.90;99.90;;;;;;5071553;28;20574;-84
2022/11/10 08:08:01;;;;;;;15.70;3.33;;;13.90;99.90;;;;;;5074681;28;20225;-86
2022/11/10 08:10:30;;;;;;;17.40;3.37;;;13.90;99.90;;;;;;5073491;28;20311;-86
2022/11/10 08:12:59;;;;;;;18.77;4.00;;;13.90;99.90;;;;;;5061921;28;20206;-87
2022/11/10 08:15:28;;;;;;;24.60;4.73;;;13.90;99.90;;;;;;5054257;28;20257;-85
2022/11/10 08:18:00;;;;;;;24.57;5.10;;;13.90;99.90;;;;;;5054559;28;20205;-83
2022/11/10 08:20:27;;;;;;;21.40;5.17;;;13.80;99.90;;;;;;5054271;28;20679;-84
2022/11/10 08:22:58;;;;;;;24.70;5.70;;;13.80;99.90;;;;;;5063713;28;20201;-84
2022/11/10 08:25:25;;;;;;;22.33;4.60;;;13.70;99.90;;;;;;5073002;28;20606;-83
2022/11/10 08:27:58;;;;;;;17.90;3.93;;;13.70;99.90;;;;;;5067415;28;20205;-85
2022/11/10 08:30:25;;;;;;;18.43;4.60;;;13.70;99.90;;;;;;5074368;28;20213;-84
2022/11/10 08:32:55;;;;;;;22.13;4.50;;;13.60;99.90;;;;;;5072162;28;20515;-83
2022/11/10 08:35:24;;;;;;;24.27;5.60;;;13.60;99.90;;;;;;5054315;28;20630;-83
2022/11/10 08:37:51;;;;;;;28.43;6.33;;;13.60;99.90;;;;;;5054287;28;20206;-83
2022/11/10 08:40:19;;;;;;;23.20;6.10;;;13.60;99.90;;;;;;5054092;28;20608;-84
2022/11/10 08:42:45;;;;;;;25.93;6.13;;;13.60;99.90;;;;;;5054427;28;20205;-84
2022/11/10 08:45:12;;;;;;;20.70;5.53;;;13.60;99.90;;;;;;5053671;28;20210;-85
2022/11/10 08:47:39;;;;;;;22.27;6.17;;;13.60;99.90;;;;;;5065443;28;20204;-85
2022/11/10 08:50:08;;;;;;;22.83;5.20;;;13.60;99.90;;;;;;5073966;28;20227;-82
2022/11/10 08:52:36;;;;;;;20.27;4.80;;;13.60;99.90;;;;;;5072685;28;20204;-85
2022/11/10 08:55:03;;;;;;;32.93;6.33;;;13.60;99.90;;;;;;5056847;28;20288;-86
2022/11/10 08:57:30;;;;;;;22.53;5.40;;;13.60;99.90;;;;;;5055740;28;20198;-82
2022/11/10 08:59:56;;;;;;;28.43;5.33;;;13.60;99.90;;;;;;5057766;28;20288;-85
2022/11/10 09:02:23;;;;;;;27.63;6.00;;;13.60;99.90;;;;;;5070869;28;20201;-85
2022/11/10 09:04:50;;;;;;;22.43;5.50;;;13.70;99.90;;;;;;5069873;28;20206;-85
2022/11/10 09:07:17;;;;;;;21.60;5.30;;;13.70;99.90;;;;;;5057447;28;20270;-85
2022/11/10 09:09:45;;;;;;;17.77;5.07;;;13.70;99.90;;;;;;5057392;28;20218;-84
2022/11/10 09:12:12;;;;;;;25.87;5.67;;;13.80;99.90;;;;;;5057326;28;20493;-85
2022/11/10 09:14:39;;;;;;;25.27;5.37;;;13.80;99.90;;;;;;5057310;28;20248;-85
2022/11/10 09:17:06;;;;;;;28.47;5.03;;;13.80;99.90;;;;;;5057571;28;20194;-82
2022/11/10 09:19:32;;;;;;;19.33;4.97;;;13.80;99.90;;;;;;5062105;28;20604;-85
2022/11/10 09:21:59;;;;;;;22.60;4.80;;;13.80;99.90;;;;;;5057476;28;20205;-85
2022/11/10 09:24:26;;;;;;;24.20;4.90;;;13.80;99.90;;;;;;5057288;28;20230;-79
2022/11/10 09:26:54;;;;;;;20.50;5.07;;;13.80;99.90;;;;;;5056640;28;20609;-85
2022/11/10 09:29:22;;;;;;;19.27;4.40;;;13.80;99.90;;;;;;5056742;28;20246;-84
2022/11/10 09:31:49;;;;;;;23.23;4.97;;;13.80;99.90;;;;;;5056714;28;20210;-84
2022/11/10 09:34:16;;;;;;;23.33;4.43;;;13.70;99.90;;;;;;5056991;28;20233;-80
2022/11/10 09:36:43;;;;;;;26.17;5.30;;;13.80;99.90;;;;;;5056844;28;20214;-83
2022/11/10 09:39:09;;;;;;;23.93;4.60;;;13.80;99.90;;;;;;5056626;28;20617;-83
2022/11/10 09:41:39;;;;;;;25.47;5.27;;;13.80;99.90;;;;;;5056889;28;20292;-84
2022/11/10 09:44:14;;;;;;;35.33;5.07;;;13.80;99.90;;;;;;5061935;28;20211;-84
2022/11/10 09:46:44;;;;;;;22.03;5.03;;;13.90;99.90;;;;;;5074671;28;20250;-83
2022/11/10 09:49:25;;;;;;;20.03;4.27;;;13.90;99.90;;;;;;5068674;28;20225;-84
2022/11/10 09:51:53;;;;;;;24.43;5.03;;;13.90;99.90;;;;;;5055858;28;20221;-79
2022/11/10 09:54:33;;;;;;;16.07;3.70;;;14.00;99.90;;;;;;5054036;28;20202;-79
2022/11/10 09:57:00;;;;;;;25.03;4.77;;;14.00;99.90;;;;;;5055254;28;20190;-81
2022/11/10 09:59:31;;;;;;;22.43;4.47;;;14.00;99.90;;;;;;5054831;28;20208;-78
2022/11/10 10:02:03;;;;;;;23.37;6.17;;;14.00;99.90;;;;;;5055989;28;20214;-82
2022/11/10 10:04:54;;;;;;;23.20;5.00;;;14.00;99.90;;;;;;5064591;28;20195;-80
2022/11/10 10:07:26;;;;;;;18.90;4.40;;;14.10;99.90;;;;;;5075632;28;20208;-82
2022/11/10 10:10:00;;;;;;;26.00;4.40;;;14.10;99.90;;;;;;5073219;28;20225;-81
2022/11/10 10:12:47;;;;;;;22.37;5.47;;;14.10;99.90;;;;;;5066176;28;20200;-81
2022/11/10 10:15:34;;;;;;;19.37;4.73;;;14.20;99.90;;;;;;5074815;28;20236;-83
2022/11/10 10:18:20;;;;;;;26.70;5.97;;;14.20;99.90;;;;;;5074743;28;20181;-79
2022/11/10 10:21:02;;;;;;;16.83;4.37;;;14.30;99.90;;;;;;5075095;28;20208;-82
2022/11/10 10:23:34;;;;;;;24.63;5.03;;;14.30;99.90;;;;;;5056211;28;20655;-80
2022/11/10 10:26:01;;;;;;;22.37;4.80;;;14.20;99.90;;;;;;5054647;28;20209;-80
2022/11/10 10:28:35;;;;;;;25.57;4.27;;;14.30;99.90;;;;;;5054705;28;20267;-79
2022/11/10 10:31:14;;;;;;;19.13;5.63;;;14.20;99.90;;;;;;5053663;28;20214;-82
2022/11/10 10:33:41;;;;;;;29.23;5.73;;;14.30;99.90;;;;;;5054589;28;20243;-80
2022/11/10 10:36:16;;;;;;;23.73;5.10;;;14.30;99.90;;;;;;5055056;28;20328;-81
2022/11/10 10:38:46;;;;;;;25.60;5.23;;;14.30;99.90;;;;;;5053730;28;20200;-79
2022/11/10 10:41:17;;;;;;;22.60;4.77;;;14.30;99.90;;;;;;5054455;28;20588;-79
2022/11/10 10:43:47;;;;;;;23.00;4.83;;;14.40;99.90;;;;;;5053484;28;20579;-79
2022/11/10 10:46:17;;;;;;;29.33;5.77;;;14.40;99.90;;;;;;5054221;28;20284;-79
2022/11/10 10:48:44;;;;;;;28.60;5.10;;;14.50;99.90;;;;;;5054710;28;20237;-78
2022/11/10 10:51:28;;;;;;;21.43;5.47;;;14.50;99.90;;;;;;5053215;28;20265;-78
2022/11/10 10:53:55;;;;;;;27.17;5.40;;;14.50;99.90;;;;;;5054017;28;20244;-80
2022/11/10 10:56:27;;;;;;;25.63;5.90;;;14.60;99.90;;;;;;5053366;28;20208;-79
2022/11/10 10:58:56;;;;;;;23.27;5.93;;;14.60;99.90;;;;;;5052917;28;20202;-78
2022/11/10 11:01:29;;;;;;;28.43;6.70;;;14.60;99.90;;;;;;5053581;28;20196;-78
2022/11/10 11:03:57;;;;;;;26.57;6.60;;;14.60;99.90;;;;;;5053899;28;20489;-78
2022/11/10 11:06:26;;;;;;;27.77;6.00;;;14.70;99.90;;;;;;5053269;28;20503;-79
2022/11/10 11:08:55;;;;;;;27.80;6.17;;;14.70;99.90;;;;;;5053634;28;20229;-79
2022/11/10 11:11:25;;;;;;;28.03;5.60;;;14.70;99.90;;;;;;5053839;28;20227;-84
2022/11/10 11:13:52;;;;;;;20.57;5.13;;;14.80;99.90;;;;;;5053722;28;20332;-81
2022/11/10 11:16:19;;;;;;;23.57;6.23;;;14.80;99.90;;;;;;5053465;28;20198;-82
2022/11/10 11:18:47;;;;;;;26.43;6.10;;;14.80;99.90;;;;;;5053103;28;20235;-83
2022/11/10 11:21:26;;;;;;;20.87;5.57;;;14.80;99.90;;;;;;5053582;28;20190;-82
2022/11/10 11:24:19;;;;;;;22.80;5.73;;;14.80;99.90;;;;;;5055188;28;20190;-83
2022/11/10 11:26:54;;;;;;;22.43;7.10;;;14.80;99.90;;;;;;5071466;28;20259;-93
2022/11/10 11:29:32;;;;;;;26.73;6.27;;;14.80;99.90;;;;;;5071750;28;20194;-91
2022/11/10 11:32:17;;;;;;;23.23;5.87;;;14.80;99.90;;;;;;5055374;28;20202;-88
2022/11/10 11:34:54;;;;;;;23.43;5.60;;;14.80;99.90;;;;;;5055092;28;20197;-87
2022/11/10 11:37:28;;;;;;;19.83;5.03;;;14.80;99.90;;;;;;5074193;28;20201;-84
2022/11/10 11:40:05;;;;;;;20.65;4.57;;;14.90;99.90;;;;;;5074173;28;20196;-85
2022/11/10 11:42:44;;;;;;;23.60;5.00;;;14.80;99.90;;;;;;5065502;28;20285;-81
2022/11/10 11:45:20;;;;;;;19.37;4.53;;;14.80;99.90;;;;;;5054022;28;20197;-88
2022/11/10 11:48:03;;;;;;;31.47;5.77;;;14.80;99.90;;;;;;5071137;28;20217;-85
2022/11/10 11:50:41;;;;;;;26.73;5.93;;;14.70;99.90;;;;;;5069931;28;20224;-87
2022/11/10 11:53:21;;;;;;;30.27;5.40;;;14.70;99.90;;;;;;5054338;28;20209;-86
2022/11/10 11:56:03;;;;;;;17.90;4.73;;;14.80;99.90;;;;;;5053774;28;20200;-85
2022/11/10 11:58:43;;;;;;;25.97;6.20;;;14.70;99.90;;;;;;5054224;28;20208;-86
2022/11/10 12:01:22;;;;;;;21.97;5.10;;;14.70;99.90;;;;;;5054890;28;20183;-85
2022/11/10 12:04:22;;;;;;;18.77;5.53;;;14.70;99.90;;;;;;5054660;28;20210;-84
2022/11/10 12:07:02;;;;;;;23.83;5.30;;;14.70;99.90;;;;;;5040050;28;20202;-79
2022/11/10 12:09:38;;;;;;;23.25;5.10;;;14.60;99.90;;;;;;5054851;28;20193;-83
2022/11/10 12:12:30;;;;;;;24.00;5.23;;;14.60;99.90;;;;;;5054307;28;20236;-84
2022/11/10 12:15:03;;;;;;;22.33;4.90;;;14.60;99.90;;;;;;5054197;28;20233;-85
2022/11/10 12:17:37;;;;;;;19.23;4.47;;;14.60;99.90;;;;;;5055393;28;20205;-84
2022/11/10 12:20:23;;;;;;;24.30;5.65;;;14.60;99.90;;;;;;5055598;28;20186;-83
2022/11/10 12:23:01;;;;;;;19.80;5.30;;;14.70;99.90;;;;;;5055020;28;20190;-86
2022/11/10 12:25:38;;;;;;;23.77;4.87;;;14.60;99.90;;;;;;5054532;28;20205;-87
2022/11/10 12:28:11;;;;;;;26.13;4.80;;;14.70;99.90;;;;;;5062411;28;20205;-85
2022/11/10 12:30:41;;;;;;;25.00;4.30;;;14.70;99.90;;;;;;5073735;28;20214;-84
2022/11/10 12:33:17;;;;;;;17.98;4.40;;;14.70;99.90;;;;;;5073240;28;20629;-83
2022/11/10 12:35:46;;;;;;;16.47;4.50;;;14.70;99.90;;;;;;5074018;28;20200;-82
2022/11/10 12:38:19;;;;;;;18.87;5.30;;;14.70;99.90;;;;;;5055766;28;20483;-82
2022/11/10 12:40:49;;;;;;;18.30;4.90;;;14.70;99.90;;;;;;5053468;28;20641;-84
2022/11/10 12:43:25;;;;;;;22.97;5.03;;;14.70;99.90;;;;;;5056894;28;20206;-85
2022/11/10 12:45:57;;;;;;;22.10;4.40;;;14.60;99.90;;;;;;5053024;28;20660;-85
2022/11/10 12:48:25;;;;;;;19.97;4.47;;;14.60;99.90;;;;;;5052150;28;20248;-85
2022/11/10 12:50:59;;;;;;;19.43;4.67;;;14.60;99.90;;;;;;5072249;28;20377;-84
2022/11/10 12:53:30;;;;;;;18.57;5.40;;;14.60;99.90;;;;;;5070993;28;20375;-85
2022/11/10 12:56:01;;;;;;;19.00;4.30;;;14.70;99.90;;;;;;5053579;28;20533;-87
2022/11/10 12:58:29;;;;;;;18.23;4.83;;;14.70;99.90;;;;;;5052802;28;20209;-83
2022/11/10 13:00:59;;;;;;;27.07;6.13;;;14.80;99.90;;;;;;5053340;28;20236;-83
2022/11/10 13:03:28;;;;;;;23.90;4.77;;;14.80;99.90;;;;;;5053838;28;20220;-88